Time;durP1;ratioP1;P1;durP2;ratioP2;P2;SDS_P1;SDS_P2;PMS_P1;PMS_P2;Temp;Humidity;BMP_temperature;BMP_pressure;BME280_temperature;BME280_humidity;BME280_pressure;Samples;Min_cycle;Max_cycle;Signal;HPM_P1;HPM_P2
2024/03/05 00:00:47;;;;;;;6.40;4.90;;;11.10;99.90;;;;;;5065667;28;20464;-46
2024/03/05 00:03:17;;;;;;;7.60;5.83;;;11.10;99.90;;;;;;5063345;28;20447;-46
2024/03/05 00:05:47;;;;;;;6.10;5.40;;;11.10;99.90;;;;;;5058714;28;20490;-45
2024/03/05 00:08:18;;;;;;;8.47;7.30;;;11.10;99.90;;;;;;5056396;28;21043;-46
2024/03/05 00:10:47;;;;;;;6.60;5.93;;;11.10;99.90;;;;;;5055886;28;20466;-46
2024/03/05 00:13:19;;;;;;;6.63;5.10;;;11.10;99.90;;;;;;5064179;28;20547;-46
2024/03/05 00:15:47;;;;;;;10.30;5.97;;;11.10;99.90;;;;;;5056049;28;20461;-46
2024/03/05 00:18:16;;;;;;;6.57;5.40;;;11.10;99.90;;;;;;5053599;28;20463;-47
2024/03/05 00:20:47;;;;;;;5.10;4.40;;;11.10;99.90;;;;;;5063848;28;20438;-45
2024/03/05 00:23:16;;;;;;;6.23;5.60;;;11.10;99.90;;;;;;5057451;28;20519;-47
2024/03/05 00:25:45;;;;;;;5.70;5.13;;;11.10;99.90;;;;;;5058503;28;20491;-45
2024/03/05 00:28:18;;;;;;;6.43;4.83;;;11.10;99.90;;;;;;5060760;28;20459;-45
2024/03/05 00:30:49;;;;;;;6.60;4.80;;;11.10;99.90;;;;;;5061271;28;20450;-46
2024/03/05 00:33:17;;;;;;;4.80;4.17;;;11.10;99.90;;;;;;5051343;28;20557;-47
2024/03/05 00:35:47;;;;;;;6.67;5.97;;;11.10;99.90;;;;;;5056248;28;20464;-47
2024/03/05 00:38:17;;;;;;;7.07;5.60;;;11.10;99.90;;;;;;5055877;28;20481;-48
2024/03/05 00:41:00;;;;;;;6.73;5.50;;;11.10;99.90;;;;;;5054808;28;20884;-46
2024/03/05 00:43:30;;;;;;;6.30;5.70;;;11.10;99.90;;;;;;5058594;28;20488;-48
2024/03/05 00:46:01;;;;;;;6.43;5.83;;;11.10;99.90;;;;;;5059244;28;20833;-46
2024/03/05 00:48:30;;;;;;;5.70;5.10;;;11.10;99.90;;;;;;5055443;28;20480;-45
2024/03/05 00:50:59;;;;;;;6.47;5.53;;;11.10;99.90;;;;;;5055039;28;21558;-46
2024/03/05 00:53:27;;;;;;;7.63;6.83;;;11.10;99.90;;;;;;5062369;28;21036;-46
2024/03/05 00:55:55;;;;;;;6.93;6.23;;;11.10;99.90;;;;;;5060913;28;20466;-47
2024/03/05 00:58:24;;;;;;;5.63;4.60;;;11.00;99.90;;;;;;5064893;28;20997;-46
2024/03/05 01:00:55;;;;;;;6.77;5.97;;;11.00;99.90;;;;;;5056743;28;20452;-47
2024/03/05 01:03:26;;;;;;;5.47;4.97;;;11.10;99.90;;;;;;5056455;28;21077;-47
2024/03/05 01:05:56;;;;;;;5.50;5.00;;;11.10;99.90;;;;;;5058118;28;20455;-46
2024/03/05 01:08:26;;;;;;;6.30;5.23;;;11.10;99.90;;;;;;5055974;28;20462;-47
2024/03/05 01:10:55;;;;;;;5.30;4.80;;;11.00;99.90;;;;;;5059365;28;20535;-47
2024/03/05 01:13:24;;;;;;;6.83;5.87;;;11.00;99.90;;;;;;5058023;28;20937;-46
2024/03/05 01:15:53;;;;;;;5.80;5.20;;;11.00;99.90;;;;;;5053912;28;20564;-46
2024/03/05 01:18:26;;;;;;;9.67;6.50;;;11.10;99.90;;;;;;5063259;28;20485;-50
2024/03/05 01:20:54;;;;;;;5.80;5.20;;;11.00;99.90;;;;;;5057710;28;20444;-45
2024/03/05 01:23:24;;;;;;;4.57;4.00;;;11.00;99.90;;;;;;5053976;28;20988;-46
2024/03/05 01:25:54;;;;;;;5.93;4.90;;;11.00;99.90;;;;;;5062315;28;20468;-46
2024/03/05 01:28:27;;;;;;;6.17;5.10;;;11.00;99.90;;;;;;5067278;28;20525;-46
2024/03/05 01:30:59;;;;;;;5.60;4.40;;;11.00;99.90;;;;;;5060298;28;20532;-46
2024/03/05 01:33:29;;;;;;;6.37;4.87;;;11.00;99.90;;;;;;5055180;28;20847;-47
2024/03/05 01:35:58;;;;;;;5.83;4.30;;;11.00;99.90;;;;;;5059449;28;20511;-47
2024/03/05 01:38:27;;;;;;;7.10;5.60;;;11.00;99.90;;;;;;5058711;28;20471;-47
2024/03/05 01:40:56;;;;;;;5.80;5.00;;;11.00;99.90;;;;;;5059948;28;20585;-51
2024/03/05 01:43:24;;;;;;;5.87;4.73;;;11.00;99.90;;;;;;5054592;28;20562;-46
2024/03/05 01:45:53;;;;;;;6.53;5.27;;;11.00;99.90;;;;;;5051797;28;20465;-47
2024/03/05 01:48:23;;;;;;;5.10;4.57;;;11.00;99.90;;;;;;5061461;28;20461;-49
2024/03/05 01:50:53;;;;;;;4.97;4.47;;;11.00;99.90;;;;;;5064245;28;20887;-45
2024/03/05 01:53:23;;;;;;;4.80;4.30;;;11.00;99.90;;;;;;5054881;28;20460;-48
2024/03/05 01:55:54;;;;;;;4.07;3.67;;;11.00;99.90;;;;;;5061303;28;20462;-47
2024/03/05 01:58:25;;;;;;;4.30;3.90;;;11.00;99.90;;;;;;5054559;28;20483;-45
2024/03/05 02:00:57;;;;;;;4.87;4.37;;;11.00;99.90;;;;;;5061496;28;20441;-46
2024/03/05 02:03:26;;;;;;;4.80;4.40;;;11.00;99.90;;;;;;5054793;28;20520;-46
2024/03/05 02:06:01;;;;;;;3.90;3.50;;;11.00;99.90;;;;;;5061685;28;20450;-48
2024/03/05 02:08:30;;;;;;;4.40;3.80;;;11.00;99.90;;;;;;5061081;28;20495;-46
2024/03/05 02:11:00;;;;;;;5.17;4.30;;;11.00;99.90;;;;;;5056264;28;20461;-46
2024/03/05 02:13:32;;;;;;;5.67;4.77;;;11.00;99.90;;;;;;5059321;28;20509;-47
2024/03/05 02:16:02;;;;;;;6.63;4.87;;;11.00;99.90;;;;;;5060594;28;20826;-46
2024/03/05 02:18:32;;;;;;;4.93;4.30;;;11.00;99.90;;;;;;5054260;28;21122;-47
2024/03/05 02:21:05;;;;;;;4.80;4.30;;;11.00;99.90;;;;;;5053999;28;20843;-48
2024/03/05 02:23:33;;;;;;;4.40;3.80;;;11.00;99.90;;;;;;5061919;28;20478;-46
2024/03/05 02:26:02;;;;;;;5.27;4.40;;;11.00;99.90;;;;;;5054081;28;20460;-46
2024/03/05 02:28:31;;;;;;;4.60;3.83;;;11.00;99.90;;;;;;5053507;28;20469;-46
2024/03/05 02:30:59;;;;;;;5.60;4.60;;;11.00;99.90;;;;;;5055292;28;20822;-45
2024/03/05 02:33:27;;;;;;;4.70;3.93;;;11.00;99.90;;;;;;5052062;28;20470;-46
2024/03/05 02:35:58;;;;;;;4.30;3.77;;;11.00;99.90;;;;;;5052648;28;20463;-47
2024/03/05 02:38:28;;;;;;;5.20;4.37;;;11.00;99.90;;;;;;5065332;28;20946;-47
2024/03/05 02:40:57;;;;;;;4.80;4.23;;;11.00;99.90;;;;;;5054289;28;20999;-47
2024/03/05 02:43:26;;;;;;;4.77;4.33;;;11.00;99.90;;;;;;5050797;28;20563;-46
2024/03/05 02:45:55;;;;;;;5.10;4.60;;;11.00;99.90;;;;;;5053288;28;20822;-49
2024/03/05 02:48:24;;;;;;;5.00;4.47;;;11.00;99.90;;;;;;5053505;28;20470;-46
2024/03/05 02:50:52;;;;;;;5.20;4.70;;;11.00;99.90;;;;;;5054802;28;20453;-46
2024/03/05 02:53:21;;;;;;;5.23;4.47;;;11.00;99.90;;;;;;5052765;28;20473;-49
2024/03/05 02:55:51;;;;;;;5.23;4.73;;;11.00;99.90;;;;;;5060402;28;20497;-46
2024/03/05 02:58:20;;;;;;;6.80;5.50;;;11.00;99.90;;;;;;5050330;28;20524;-46
2024/03/05 03:00:48;;;;;;;5.20;4.53;;;11.00;99.90;;;;;;5059001;28;20922;-46
2024/03/05 03:03:17;;;;;;;5.03;4.47;;;11.00;99.90;;;;;;5050954;28;20567;-48
2024/03/05 03:05:46;;;;;;;4.93;4.43;;;11.00;99.90;;;;;;5051261;28;20847;-45
2024/03/05 03:08:17;;;;;;;4.33;3.90;;;10.90;99.90;;;;;;5056065;28;20826;-48
2024/03/05 03:10:47;;;;;;;4.60;3.60;;;11.00;99.90;;;;;;5059304;28;20493;-48
2024/03/05 03:13:19;;;;;;;6.70;5.30;;;10.90;99.90;;;;;;5056227;28;21015;-47
2024/03/05 03:15:47;;;;;;;5.77;5.00;;;11.00;99.90;;;;;;5060067;28;20515;-48
2024/03/05 03:18:17;;;;;;;6.20;5.17;;;11.00;99.90;;;;;;5055090;28;20823;-49
2024/03/05 03:20:46;;;;;;;5.77;5.17;;;10.90;99.90;;;;;;5061107;28;20460;-47
2024/03/05 03:23:15;;;;;;;7.33;5.03;;;10.90;99.90;;;;;;5054859;28;20486;-46
2024/03/05 03:25:45;;;;;;;4.63;4.10;;;10.90;99.90;;;;;;5055119;28;20549;-46
2024/03/05 03:28:13;;;;;;;5.20;4.40;;;10.90;99.90;;;;;;5056584;28;20493;-47
2024/03/05 03:30:43;;;;;;;5.40;4.90;;;10.90;99.90;;;;;;5055265;28;20900;-47
2024/03/05 03:33:11;;;;;;;5.77;4.50;;;10.90;99.90;;;;;;5057584;28;20471;-45
2024/03/05 03:35:40;;;;;;;4.70;4.00;;;10.90;99.90;;;;;;5060883;28;20478;-46
2024/03/05 03:38:10;;;;;;;5.83;4.60;;;10.90;99.90;;;;;;5058269;28;20455;-48
2024/03/05 03:40:38;;;;;;;4.07;3.67;;;10.90;99.90;;;;;;5055770;28;20498;-45
2024/03/05 03:43:07;;;;;;;4.63;3.80;;;10.90;99.90;;;;;;5063195;28;20477;-46
2024/03/05 03:45:35;;;;;;;4.00;3.60;;;10.90;99.90;;;;;;5064707;28;20449;-47
2024/03/05 03:48:05;;;;;;;4.57;4.07;;;10.90;99.90;;;;;;5062447;28;20908;-46
2024/03/05 03:50:33;;;;;;;4.40;4.00;;;10.90;99.90;;;;;;5061057;28;20443;-50
2024/03/05 03:53:03;;;;;;;4.17;3.77;;;10.90;99.90;;;;;;5065226;28;20575;-46
2024/03/05 03:55:31;;;;;;;4.60;4.20;;;10.90;99.90;;;;;;5064003;28;20447;-46
2024/03/05 03:58:01;;;;;;;4.70;4.30;;;10.90;99.90;;;;;;5061011;28;20461;-45
2024/03/05 04:00:32;;;;;;;4.20;3.80;;;10.90;99.90;;;;;;5055981;28;20447;-45
2024/03/05 04:03:02;;;;;;;5.03;4.30;;;10.90;99.90;;;;;;5057508;28;20592;-46
2024/03/05 04:05:32;;;;;;;5.10;4.30;;;10.90;99.90;;;;;;5061097;28;20971;-46
2024/03/05 04:08:01;;;;;;;5.47;4.50;;;10.90;99.90;;;;;;5064556;28;20452;-49
2024/03/05 04:10:32;;;;;;;6.10;5.50;;;10.90;99.90;;;;;;5056744;28;20450;-45
2024/03/05 04:13:01;;;;;;;5.70;5.10;;;10.90;99.90;;;;;;5067824;28;20808;-47
2024/03/05 04:15:29;;;;;;;6.63;5.70;;;10.90;99.90;;;;;;5056434;28;20464;-47
2024/03/05 04:17:57;;;;;;;7.93;6.40;;;10.90;99.90;;;;;;5066109;28;20457;-46
2024/03/05 04:20:26;;;;;;;7.73;5.40;;;10.90;99.90;;;;;;5067504;28;20443;-48
2024/03/05 04:22:56;;;;;;;10.17;6.70;;;10.90;99.90;;;;;;5064495;28;20472;-47
2024/03/05 04:25:30;;;;;;;5.57;4.47;;;10.90;99.90;;;;;;5066519;28;20471;-46
2024/03/05 04:28:10;;;;;;;5.07;4.37;;;10.90;99.90;;;;;;5060370;28;20834;-47
2024/03/05 04:30:46;;;;;;;5.60;4.33;;;10.90;99.90;;;;;;5061713;28;20454;-46
2024/03/05 04:33:19;;;;;;;5.50;4.90;;;10.90;99.90;;;;;;5054407;28;20456;-48
2024/03/05 04:35:48;;;;;;;4.90;4.40;;;10.90;99.90;;;;;;5060847;28;20986;-46
2024/03/05 04:38:17;;;;;;;5.00;4.43;;;10.90;99.90;;;;;;5055398;28;20475;-46
2024/03/05 04:40:50;;;;;;;5.50;4.70;;;10.90;99.90;;;;;;5060002;28;20487;-45
2024/03/05 04:43:18;;;;;;;5.57;4.40;;;10.90;99.90;;;;;;5053852;28;20844;-45
2024/03/05 04:45:47;;;;;;;5.73;5.03;;;10.90;99.90;;;;;;5060306;28;20464;-46
2024/03/05 04:48:16;;;;;;;6.13;5.10;;;10.90;99.90;;;;;;5060133;28;20835;-50
2024/03/05 04:50:44;;;;;;;7.47;6.23;;;10.90;99.90;;;;;;5063097;28;20448;-46
2024/03/05 04:53:12;;;;;;;7.07;5.67;;;10.80;99.90;;;;;;5038527;28;20471;-46
2024/03/05 04:55:43;;;;;;;5.00;4.50;;;10.80;99.90;;;;;;5067385;28;20969;-47
2024/03/05 04:58:11;;;;;;;7.83;5.60;;;10.90;99.90;;;;;;5061023;28;20834;-45
2024/03/05 05:00:41;;;;;;;6.37;5.07;;;10.80;99.90;;;;;;5061112;28;20442;-47
2024/03/05 05:03:10;;;;;;;8.37;6.90;;;10.90;99.90;;;;;;5057645;28;20479;-45
2024/03/05 05:05:39;;;;;;;8.97;6.77;;;10.80;99.90;;;;;;5057462;28;20473;-45
2024/03/05 05:08:08;;;;;;;6.97;5.47;;;10.80;99.90;;;;;;5063190;28;20483;-45
2024/03/05 05:10:36;;;;;;;6.57;5.17;;;10.80;99.90;;;;;;5057315;28;20480;-46
2024/03/05 05:13:06;;;;;;;8.40;6.77;;;10.80;99.90;;;;;;5062165;28;20466;-46
2024/03/05 05:15:37;;;;;;;7.53;5.80;;;10.80;99.90;;;;;;5051975;28;20457;-47
2024/03/05 05:18:07;;;;;;;7.57;5.33;;;10.80;99.90;;;;;;5058789;28;20465;-48
2024/03/05 05:20:36;;;;;;;6.33;5.13;;;10.80;99.90;;;;;;5061466;28;20442;-46
2024/03/05 05:23:05;;;;;;;9.40;6.13;;;10.80;99.90;;;;;;5062392;28;20522;-46
2024/03/05 05:25:33;;;;;;;6.80;5.10;;;10.80;99.90;;;;;;5056713;28;21048;-45
2024/03/05 05:28:01;;;;;;;9.40;6.53;;;10.80;99.90;;;;;;5059906;28;20477;-45
2024/03/05 05:30:31;;;;;;;5.93;4.90;;;10.80;99.90;;;;;;5059239;28;20455;-46
2024/03/05 05:32:59;;;;;;;6.57;5.23;;;10.80;99.90;;;;;;5053566;28;20509;-48
2024/03/05 05:35:28;;;;;;;8.53;7.53;;;10.80;99.90;;;;;;5057029;28;20547;-48
2024/03/05 05:37:57;;;;;;;6.57;4.90;;;10.80;99.90;;;;;;5064004;28;20595;-46
2024/03/05 05:40:26;;;;;;;8.87;5.87;;;10.80;99.90;;;;;;5051874;28;20477;-48
2024/03/05 05:42:58;;;;;;;6.80;5.30;;;10.80;99.90;;;;;;5059323;28;21017;-46
2024/03/05 05:45:26;;;;;;;7.17;5.80;;;10.80;99.90;;;;;;5045454;28;20480;-46
2024/03/05 05:47:58;;;;;;;10.70;7.60;;;10.80;99.90;;;;;;5064641;28;20567;-47
2024/03/05 05:50:28;;;;;;;8.67;7.23;;;10.80;99.90;;;;;;5041780;28;20456;-46
2024/03/05 05:52:57;;;;;;;9.37;5.60;;;10.80;99.90;;;;;;5059975;28;20530;-46
2024/03/05 05:55:26;;;;;;;6.50;5.60;;;10.80;99.90;;;;;;5052049;28;20540;-48
2024/03/05 05:57:56;;;;;;;9.17;6.43;;;10.80;99.90;;;;;;5061419;28;20523;-46
2024/03/05 06:00:32;;;;;;;10.07;7.00;;;10.80;99.90;;;;;;5059803;28;20436;-45
2024/03/05 06:03:06;;;;;;;7.27;5.87;;;10.80;99.90;;;;;;5059765;28;20485;-50
2024/03/05 06:05:38;;;;;;;5.43;4.80;;;10.80;99.90;;;;;;5062849;28;21003;-46
2024/03/05 06:08:10;;;;;;;5.97;5.00;;;10.80;99.90;;;;;;5064843;28;20461;-46
2024/03/05 06:10:42;;;;;;;8.00;5.90;;;10.80;99.90;;;;;;5060748;28;20533;-50
2024/03/05 06:13:12;;;;;;;6.17;5.00;;;10.80;99.90;;;;;;5059198;28;20558;-46
2024/03/05 06:15:41;;;;;;;6.83;5.00;;;10.80;99.90;;;;;;5065846;28;20460;-46
2024/03/05 06:18:13;;;;;;;5.80;4.97;;;10.80;99.90;;;;;;5057249;28;20509;-44
2024/03/05 06:20:43;;;;;;;7.30;5.70;;;10.80;99.90;;;;;;5063541;28;20466;-46
2024/03/05 06:23:12;;;;;;;6.17;5.07;;;10.80;99.90;;;;;;5058600;28;20526;-46
2024/03/05 06:25:41;;;;;;;5.83;4.97;;;10.80;99.90;;;;;;5058072;28;20470;-45
2024/03/05 06:28:12;;;;;;;7.30;4.30;;;10.80;99.90;;;;;;5055428;28;20568;-46
2024/03/05 06:30:45;;;;;;;6.70;5.20;;;10.80;99.90;;;;;;5058955;28;20440;-45
2024/03/05 06:33:19;;;;;;;6.27;4.70;;;10.80;99.90;;;;;;5055417;28;20573;-51
2024/03/05 06:35:48;;;;;;;5.23;4.73;;;10.80;99.90;;;;;;5055654;28;20450;-45
2024/03/05 06:38:17;;;;;;;4.90;4.40;;;10.70;99.90;;;;;;5061997;28;20474;-47
2024/03/05 06:40:47;;;;;;;6.10;4.73;;;10.80;99.90;;;;;;5068373;28;20444;-49
2024/03/05 06:43:20;;;;;;;5.70;5.20;;;10.80;99.90;;;;;;5069841;28;20909;-46
2024/03/05 06:45:49;;;;;;;6.07;4.70;;;10.80;99.90;;;;;;5069882;28;20492;-48
2024/03/05 06:48:22;;;;;;;4.70;4.20;;;10.80;99.90;;;;;;5065738;28;20494;-52
2024/03/05 06:50:57;;;;;;;4.43;4.00;;;10.80;99.90;;;;;;5069506;28;20435;-43
2024/03/05 06:58:59;;;;;;;4.80;4.10;;;10.80;99.90;;;;;;5061084;28;20454;-47
2024/03/05 07:01:28;;;;;;;4.93;3.63;;;10.70;99.90;;;;;;5057394;28;20443;-47
2024/03/05 07:03:58;;;;;;;5.00;4.20;;;10.70;99.90;;;;;;5055564;28;20517;-45
2024/03/05 07:06:26;;;;;;;4.50;3.30;;;10.80;99.90;;;;;;5052220;28;20482;-45
2024/03/05 07:08:56;;;;;;;3.97;3.57;;;10.70;99.90;;;;;;5057370;28;20514;-44
2024/03/05 07:11:26;;;;;;;3.83;3.43;;;10.70;99.90;;;;;;5053155;28;20435;-49
2024/03/05 07:13:57;;;;;;;5.17;4.00;;;10.70;99.90;;;;;;5055099;28;20775;-46
2024/03/05 07:16:26;;;;;;;4.20;3.40;;;10.70;99.90;;;;;;5058135;28;20455;-50
2024/03/05 07:18:57;;;;;;;3.50;3.13;;;10.70;99.90;;;;;;5056944;28;20820;-46
2024/03/05 07:21:28;;;;;;;4.23;3.73;;;10.70;99.90;;;;;;5061296;28;20468;-44
2024/03/05 07:23:58;;;;;;;5.07;4.13;;;10.70;99.90;;;;;;5063522;28;20796;-45
2024/03/05 07:26:28;;;;;;;3.57;3.27;;;10.70;99.90;;;;;;5062554;28;20524;-45
2024/03/05 07:28:57;;;;;;;5.93;4.30;;;10.70;99.90;;;;;;5064049;28;20528;-47
2024/03/05 07:31:28;;;;;;;5.10;4.00;;;10.70;99.90;;;;;;5055494;28;20457;-45
2024/03/05 07:33:58;;;;;;;4.60;4.20;;;10.70;99.90;;;;;;5057863;28;20943;-46
2024/03/05 07:36:27;;;;;;;4.43;3.53;;;10.70;99.90;;;;;;5056139;28;20447;-45
2024/03/05 07:38:56;;;;;;;4.20;3.67;;;10.70;99.90;;;;;;5055375;28;20440;-46
2024/03/05 07:41:26;;;;;;;3.50;3.10;;;10.70;99.90;;;;;;5052986;28;20506;-46
2024/03/05 07:44:03;;;;;;;3.60;3.30;;;10.70;99.90;;;;;;5060043;28;20456;-46
2024/03/05 07:46:33;;;;;;;6.60;4.97;;;10.70;99.90;;;;;;5057915;28;20552;-45
2024/03/05 07:49:03;;;;;;;6.57;5.80;;;10.70;99.90;;;;;;5055224;28;20443;-47
2024/03/05 07:51:32;;;;;;;5.93;4.30;;;10.70;99.90;;;;;;5057652;28;20463;-48
2024/03/05 07:54:13;;;;;;;4.60;4.00;;;10.70;99.90;;;;;;5050311;28;20458;-51
2024/03/05 07:56:42;;;;;;;4.43;3.70;;;10.70;99.90;;;;;;5058086;28;20459;-44
2024/03/05 07:59:11;;;;;;;4.63;3.80;;;10.70;99.90;;;;;;5056105;28;20462;-46
2024/03/05 08:01:40;;;;;;;4.77;3.87;;;10.70;99.90;;;;;;5058434;28;20452;-46
2024/03/05 08:04:13;;;;;;;3.93;3.53;;;10.70;99.90;;;;;;5054452;28;20536;-46
2024/03/05 08:06:41;;;;;;;3.30;3.00;;;10.70;99.90;;;;;;5056214;28;20515;-46
2024/03/05 08:09:12;;;;;;;4.40;3.73;;;10.70;99.90;;;;;;5039365;28;20440;-46
2024/03/05 08:11:41;;;;;;;9.10;6.90;;;10.70;99.90;;;;;;5063113;28;20473;-45
2024/03/05 08:14:10;;;;;;;8.03;5.70;;;10.70;99.90;;;;;;5058605;28;20482;-46
2024/03/05 08:16:38;;;;;;;4.60;3.97;;;10.70;99.90;;;;;;5055852;28;20469;-46
2024/03/05 08:19:07;;;;;;;8.20;6.70;;;10.70;99.90;;;;;;5056287;28;20528;-47
2024/03/05 08:21:37;;;;;;;10.00;6.67;;;10.70;99.90;;;;;;5073003;28;20455;-47
2024/03/05 08:24:09;;;;;;;4.60;3.77;;;10.70;99.90;;;;;;5062972;28;20439;-46
2024/03/05 08:26:37;;;;;;;5.20;3.93;;;10.70;99.90;;;;;;5059412;28;20460;-47
2024/03/05 08:29:07;;;;;;;4.63;4.13;;;10.70;99.90;;;;;;5061928;28;20483;-48
2024/03/05 08:31:38;;;;;;;10.60;7.13;;;10.70;99.90;;;;;;5057923;28;20481;-47
2024/03/05 08:34:08;;;;;;;4.23;3.33;;;10.70;99.90;;;;;;5062134;28;20440;-46
2024/03/05 08:36:39;;;;;;;4.33;3.93;;;10.60;99.90;;;;;;5054963;28;20977;-47
2024/03/05 08:39:17;;;;;;;5.20;4.70;;;10.60;99.90;;;;;;5060264;28;20453;-45
2024/03/05 08:41:47;;;;;;;7.03;5.60;;;10.70;99.90;;;;;;5061106;28;21007;-45
2024/03/05 08:44:17;;;;;;;3.30;3.00;;;10.70;99.90;;;;;;5058783;28;20534;-47
2024/03/05 08:46:46;;;;;;;7.07;5.30;;;10.70;99.90;;;;;;5065239;28;20482;-45
2024/03/05 08:49:15;;;;;;;4.03;3.03;;;10.70;99.90;;;;;;5063073;28;21013;-47
2024/03/05 08:51:47;;;;;;;4.30;3.27;;;10.60;99.90;;;;;;5060074;28;20461;-46
2024/03/05 08:54:16;;;;;;;4.67;3.80;;;10.60;99.90;;;;;;5062777;28;20825;-46
2024/03/05 08:56:46;;;;;;;4.87;4.00;;;10.60;99.90;;;;;;5053944;28;20455;-45
2024/03/05 08:59:16;;;;;;;7.33;5.53;;;10.70;99.90;;;;;;5059735;28;20441;-46
2024/03/05 09:01:44;;;;;;;3.97;3.57;;;10.60;99.90;;;;;;5063456;28;20457;-45
2024/03/05 09:04:16;;;;;;;6.70;5.53;;;10.60;99.90;;;;;;5063169;28;20445;-45
2024/03/05 09:06:49;;;;;;;5.00;4.03;;;10.60;99.90;;;;;;5063681;28;20961;-49
2024/03/05 09:09:17;;;;;;;4.23;3.83;;;10.60;99.90;;;;;;5066570;28;20419;-45
2024/03/05 09:11:46;;;;;;;5.20;3.57;;;10.60;99.90;;;;;;5058320;28;20526;-48
2024/03/05 09:14:16;;;;;;;3.97;3.30;;;10.60;99.90;;;;;;5056348;28;20541;-46
2024/03/05 09:16:45;;;;;;;5.20;4.10;;;10.70;99.90;;;;;;5057484;28;20451;-45
2024/03/05 09:19:17;;;;;;;3.97;3.37;;;10.60;99.90;;;;;;5058482;28;21362;-46
2024/03/05 09:21:49;;;;;;;4.80;4.10;;;10.60;99.90;;;;;;5064387;28;20469;-47
2024/03/05 09:24:17;;;;;;;4.33;3.50;;;10.60;99.90;;;;;;5057918;28;20447;-48
2024/03/05 09:26:48;;;;;;;4.60;4.03;;;10.60;99.90;;;;;;5057576;28;20487;-46
2024/03/05 09:29:17;;;;;;;6.17;4.03;;;10.60;99.90;;;;;;5064079;28;20442;-45
2024/03/05 09:31:46;;;;;;;3.63;3.33;;;10.60;99.90;;;;;;5059717;28;20471;-45
2024/03/05 09:34:14;;;;;;;3.70;2.80;;;10.60;99.90;;;;;;5056012;28;20954;-46
2024/03/05 09:36:44;;;;;;;4.10;3.20;;;10.60;99.90;;;;;;5045750;28;20484;-48
2024/03/05 09:39:15;;;;;;;3.73;2.90;;;10.60;99.90;;;;;;5063175;28;20487;-47
2024/03/05 09:41:46;;;;;;;3.83;3.20;;;10.60;99.90;;;;;;5061844;28;20455;-46
2024/03/05 09:44:18;;;;;;;3.87;3.30;;;10.60;99.90;;;;;;5061944;28;20995;-45
2024/03/05 09:46:49;;;;;;;3.23;2.93;;;10.60;99.90;;;;;;5058023;28;20461;-46
2024/03/05 09:49:18;;;;;;;3.87;3.17;;;10.60;99.90;;;;;;5062172;28;20442;-45
2024/03/05 09:51:54;;;;;;;5.27;3.87;;;10.60;99.90;;;;;;5063754;28;20456;-46
2024/03/05 09:54:23;;;;;;;3.20;2.90;;;10.60;99.90;;;;;;5061386;28;20470;-46
2024/03/05 09:56:58;;;;;;;3.83;2.80;;;10.60;99.90;;;;;;5064666;28;20463;-47
2024/03/05 09:59:26;;;;;;;3.27;2.30;;;10.60;99.90;;;;;;5063544;28;20526;-47
2024/03/05 10:01:56;;;;;;;3.27;2.67;;;10.60;99.90;;;;;;5057660;28;20468;-46
2024/03/05 10:04:28;;;;;;;2.60;2.37;;;10.60;99.90;;;;;;5057983;28;20464;-45
2024/03/05 10:06:56;;;;;;;3.00;2.70;;;10.60;99.90;;;;;;5058389;28;20466;-45
2024/03/05 10:09:28;;;;;;;3.77;3.13;;;10.60;99.90;;;;;;5062767;28;20425;-47
2024/03/05 10:11:56;;;;;;;5.93;4.10;;;10.60;99.90;;;;;;5061191;28;20454;-45
2024/03/05 10:14:26;;;;;;;4.50;4.10;;;10.60;99.90;;;;;;5057529;28;20514;-48
2024/03/05 10:17:01;;;;;;;3.60;3.03;;;10.60;99.90;;;;;;5057361;28;20921;-48
2024/03/05 10:19:42;;;;;;;3.30;2.53;;;10.60;99.90;;;;;;5061849;28;20466;-46
2024/03/05 10:22:11;;;;;;;3.27;2.97;;;10.60;99.90;;;;;;5058575;28;20467;-46
2024/03/05 10:24:41;;;;;;;3.50;3.20;;;10.60;99.90;;;;;;5056584;28;20548;-46
2024/03/05 10:27:14;;;;;;;3.33;2.77;;;10.60;99.90;;;;;;5065803;28;20558;-47
2024/03/05 10:29:42;;;;;;;3.17;2.87;;;10.60;99.90;;;;;;5063511;28;21045;-45
2024/03/05 10:32:17;;;;;;;2.90;2.67;;;10.60;99.90;;;;;;5064580;28;20470;-48
2024/03/05 10:34:47;;;;;;;3.70;3.33;;;10.60;99.90;;;;;;5059582;28;20459;-49
2024/03/05 10:37:17;;;;;;;2.57;2.37;;;10.60;99.90;;;;;;5064569;28;20551;-46
2024/03/05 10:39:48;;;;;;;4.43;4.03;;;10.60;99.90;;;;;;5057757;28;20451;-47
2024/03/05 10:42:25;;;;;;;3.83;3.43;;;10.60;99.90;;;;;;5051158;28;20463;-48
2024/03/05 10:44:55;;;;;;;3.50;3.00;;;10.60;99.90;;;;;;5065487;28;20550;-46
2024/03/05 10:47:27;;;;;;;3.20;2.80;;;10.50;99.90;;;;;;5064564;28;20474;-46
2024/03/05 10:49:58;;;;;;;4.10;3.50;;;10.60;99.90;;;;;;5057717;28;20444;-47
2024/03/05 10:52:29;;;;;;;3.60;2.67;;;10.60;99.90;;;;;;5064322;28;20904;-45
2024/03/05 10:55:01;;;;;;;4.40;3.40;;;10.60;99.90;;;;;;5057859;28;20452;-48
2024/03/05 10:58:08;;;;;;;4.07;3.20;;;10.60;99.90;;;;;;5057110;28;20652;-46
2024/03/05 11:00:24;;;;;;;3.00;2.57;;;10.60;99.90;;;;;;5053943;28;20517;-48
2024/03/05 11:02:59;;;;;;;3.57;3.10;;;10.50;99.90;;;;;;5063146;28;20555;-51
2024/03/05 11:05:35;;;;;;;3.90;2.83;;;10.50;99.90;;;;;;5054765;28;20474;-48
2024/03/05 11:08:09;;;;;;;4.97;4.10;;;10.60;99.90;;;;;;5055267;28;20453;-48
2024/03/05 11:10:46;;;;;;;3.10;2.70;;;10.60;99.90;;;;;;5063828;28;20526;-45
2024/03/05 11:13:17;;;;;;;3.10;2.80;;;10.60;99.90;;;;;;5067870;28;20476;-47
2024/03/05 11:15:49;;;;;;;4.40;3.00;;;10.60;99.90;;;;;;5067042;28;20480;-46
2024/03/05 11:18:31;;;;;;;3.70;3.13;;;10.50;99.90;;;;;;5058165;28;20546;-50
2024/03/05 11:21:05;;;;;;;3.43;2.90;;;10.50;99.90;;;;;;5068464;28;20460;-48
2024/03/05 11:23:34;;;;;;;3.30;2.70;;;10.60;99.90;;;;;;5067506;28;20482;-46
2024/03/05 11:26:06;;;;;;;4.33;3.20;;;10.60;99.90;;;;;;5068179;28;20446;-47
2024/03/05 11:28:36;;;;;;;3.27;2.93;;;10.60;99.90;;;;;;5066991;28;20466;-47
2024/03/05 11:31:13;;;;;;;3.30;2.73;;;10.60;99.90;;;;;;5062980;28;20449;-49
2024/03/05 11:33:44;;;;;;;4.23;2.90;;;10.60;99.90;;;;;;5067233;28;20558;-47
2024/03/05 11:36:23;;;;;;;4.10;2.83;;;10.50;99.90;;;;;;5069697;28;20451;-47
2024/03/05 11:39:04;;;;;;;2.70;2.33;;;10.60;99.90;;;;;;5063532;28;20976;-47
2024/03/05 11:41:35;;;;;;;8.10;6.20;;;10.60;99.90;;;;;;5062761;28;20427;-46
2024/03/05 11:44:04;;;;;;;3.33;2.83;;;10.50;99.90;;;;;;5060617;28;20455;-46
2024/03/05 11:46:44;;;;;;;2.93;2.63;;;10.50;99.90;;;;;;5067542;28;20442;-48
2024/03/05 11:49:14;;;;;;;3.00;2.70;;;10.50;99.90;;;;;;5061710;28;20559;-47
2024/03/05 11:51:47;;;;;;;2.73;2.53;;;10.60;99.90;;;;;;5061740;28;20988;-45
2024/03/05 11:54:18;;;;;;;3.50;2.90;;;10.60;99.90;;;;;;5064610;28;20828;-45
2024/03/05 11:56:58;;;;;;;4.40;2.83;;;10.50;99.90;;;;;;5072178;28;20821;-46
2024/03/05 11:59:34;;;;;;;3.87;2.63;;;10.60;99.90;;;;;;5072046;28;20910;-47
2024/03/05 12:02:02;;;;;;;2.90;2.60;;;10.60;99.90;;;;;;5057951;28;20572;-45
2024/03/05 12:04:31;;;;;;;3.23;2.13;;;10.60;99.90;;;;;;5068609;28;20994;-47
2024/03/05 12:07:03;;;;;;;4.47;3.40;;;10.60;99.90;;;;;;5068779;28;20466;-46
2024/03/05 12:09:32;;;;;;;4.07;3.60;;;10.60;99.90;;;;;;5070257;28;20468;-46
2024/03/05 12:12:05;;;;;;;3.80;2.73;;;10.60;99.90;;;;;;5069339;28;21050;-46
2024/03/05 12:14:35;;;;;;;2.70;2.33;;;10.60;99.90;;;;;;5070086;28;20467;-46
2024/03/05 12:17:07;;;;;;;2.93;2.30;;;10.60;99.90;;;;;;5066523;28;20462;-48
2024/03/05 12:19:38;;;;;;;3.13;2.70;;;10.60;99.90;;;;;;5065809;28;20443;-48
2024/03/05 12:22:08;;;;;;;3.03;2.73;;;10.60;99.90;;;;;;5071209;28;20987;-47
2024/03/05 12:24:39;;;;;;;3.00;2.27;;;10.60;99.90;;;;;;5073103;28;20455;-48
2024/03/05 12:27:09;;;;;;;3.80;3.10;;;10.60;99.90;;;;;;5070345;28;20523;-46
2024/03/05 12:29:40;;;;;;;3.70;2.90;;;10.60;99.90;;;;;;5070170;28;20527;-47
2024/03/05 12:32:10;;;;;;;4.10;3.20;;;10.60;99.90;;;;;;5070386;28;20490;-45
2024/03/05 12:34:41;;;;;;;3.00;2.63;;;10.60;99.90;;;;;;5069267;28;20499;-46
2024/03/05 12:37:12;;;;;;;2.77;2.40;;;10.60;99.90;;;;;;5072603;28;20495;-47
2024/03/05 12:39:42;;;;;;;3.03;2.73;;;10.60;99.90;;;;;;5066946;28;20435;-46
2024/03/05 12:42:13;;;;;;;4.27;2.77;;;10.60;99.90;;;;;;5070024;28;20883;-47
2024/03/05 12:44:42;;;;;;;3.90;3.40;;;10.60;99.90;;;;;;5072147;28;20454;-46
2024/03/05 12:47:12;;;;;;;5.30;4.70;;;10.60;99.90;;;;;;5071989;28;20454;-46
2024/03/05 12:49:44;;;;;;;5.63;4.40;;;10.60;99.90;;;;;;5040517;28;20495;-46
2024/03/05 12:52:19;;;;;;;3.23;2.93;;;10.50;99.90;;;;;;5072405;28;20527;-46
2024/03/05 12:54:58;;;;;;;4.17;3.00;;;10.60;99.90;;;;;;5072512;28;20480;-46
2024/03/05 12:57:28;;;;;;;4.97;3.80;;;10.60;99.90;;;;;;5064900;28;20441;-45
2024/03/05 12:59:58;;;;;;;3.60;3.00;;;10.60;99.90;;;;;;5072432;28;20440;-46
2024/03/05 13:02:27;;;;;;;2.77;2.50;;;10.60;99.90;;;;;;5066314;28;20439;-46
2024/03/05 13:04:58;;;;;;;3.13;2.50;;;10.50;99.90;;;;;;5050824;28;20456;-45
2024/03/05 13:07:27;;;;;;;2.70;2.27;;;10.60;99.90;;;;;;5038643;28;20459;-46